DW9151 Weather Reports


Display with metric or nautical units.
time (UTC)temp
F
wind
direction
speed
MPH
gust
MPH
rain 1hr
in
rain 24hr
in
rain mn
in
humidity
%
barometer
mb
20240620225605 62 0 5.0 8.0 0.00 0.00 0.00 61 1018.6
20240620225105 62 0 6.0 9.0 0.00 0.00 0.00 61 1018.6
20240620224605 62 0 6.0 10.0 0.00 0.00 0.00 62 1018.6
20240620224106 62 0 5.0 8.0 0.00 0.00 0.00 64 1018.5
20240620223605 62 0 6.0 9.0 0.00 0.00 0.00 64 1018.6
20240620223105 62 0 6.0 10.0 0.00 0.00 0.00 64 1018.5
20240620222105 62 0 3.0 7.0 0.00 0.00 0.00 64 1018.6
20240620221605 63 0 3.0 6.0 0.00 0.00 0.00 64 1018.7
20240620221105 63 0 2.0 3.0 0.00 0.00 0.00 65 1018.6
20240620215605 64 0 2.0 5.0 0.00 0.00 0.00 61 1018.6
20240620215105 64 0 2.0 3.0 0.00 0.00 0.00 61 1018.7
20240620214605 64 0 3.0 6.0 0.00 0.00 0.00 60 1018.6
20240620214104 64 0 2.0 6.0 0.00 0.00 0.00 61 1018.8
20240620213605 64 0 3.0 7.0 0.00 0.00 0.00 62 1018.8
20240620213105 64 0 3.0 10.0 0.00 0.00 0.00 62 1018.8
20240620212605 64 0 5.0 12.0 0.00 0.00 0.00 61 1018.8
20240620212105 64 0 6.0 12.0 0.00 0.00 0.00 61 1018.9
20240620211605 64 0 6.0 12.0 0.00 0.00 0.00 61 1018.9
20240620210105 65 0 5.0 14.0 0.00 0.00 0.00 60 1018.7
20240620205606 65 0 9.0 14.0 0.00 0.00 0.00 60 1018.7
20240620205105 65 0 7.0 14.0 0.00 0.00 0.00 60 1018.6
20240620204604 65 0 6.0 13.0 0.00 0.00 0.00 60 1018.5
20240620204105 64 0 6.0 12.0 0.00 0.00 0.00 60 1018.5
20240620203105 64 0 6.0 14.0 0.00 0.00 0.00 63 1018.6
20240620202605 63 0 8.0 16.0 0.00 0.00 0.00 64 1018.6
20240620202105 63 0 6.0 12.0 0.00 0.00 0.00 66 1018.5
20240620201605 63 0 7.0 13.0 0.00 0.00 0.00 65 1018.5
20240620201105 63 0 7.0 14.0 0.00 0.00 0.00 66 1018.6
20240620200605 63 0 6.0 15.0 0.00 0.00 0.00 66 1018.6
20240620200105 64 0 7.0 13.0 0.00 0.00 0.00 65 1018.6
20240620195605 64 0 7.0 14.0 0.00 0.00 0.00 64 1018.4
20240620195105 64 0 9.0 15.0 0.00 0.00 0.00 65 1018.4
20240620194604 64 0 7.0 15.0 0.00 0.00 0.00 65 1018.4
20240620194105 64 0 4.0 12.0 0.00 0.00 0.00 65 1018.3
20240620193605 64 0 8.0 17.0 0.00 0.00 0.00 66 1018.2
20240620193104 64 0 6.0 14.0 0.00 0.00 0.00 67 1018.1
20240620192104 64 0 7.0 12.0 0.00 0.00 0.00 67 1017.9
20240620191604 64 0 6.0 10.0 0.00 0.00 0.00 68 1018.0
20240620190605 63 0 6.0 12.0 0.00 0.00 0.00 68 1018.3
20240620190105 63 0 7.0 12.0 0.00 0.00 0.00 68 1018.4
20240620185605 63 0 7.0 13.0 0.00 0.00 0.00 68 1018.3
20240620185105 63 0 5.0 12.0 0.00 0.00 0.00 69 1018.2
20240620184605 63 0 7.0 13.0 0.00 0.00 0.00 69 1018.3
20240620184105 64 0 5.0 10.0 0.00 0.00 0.00 68 1018.2
20240620183604 64 0 5.0 17.0 0.00 0.00 0.00 66 1018.2
20240620182604 64 0 4.0 10.0 0.00 0.00 0.00 68 1018.1
20240620182105 64 0 5.0 9.0 0.00 0.00 0.00 69 1018.1
20240620181605 64 0 4.0 8.0 0.00 0.00 0.00 69 1017.8
20240620181104 63 0 6.0 12.0 0.00 0.00 0.00 72 1018.0
20240620180604 63 0 7.0 14.0 0.00 0.00 0.00 74 1018.0
20240620175605 63 0 6.0 16.0 0.00 0.00 0.00 73 1018.1
20240620175105 63 0 4.0 12.0 0.00 0.00 0.00 74 1018.3
20240620174105 63 0 8.0 14.0 0.00 0.00 0.00 78 1018.1
20240620173605 63 0 7.0 10.0 0.00 0.00 0.00 77 1018.2
20240620173104 64 0 8.0 15.0 0.00 0.00 0.00 73 1018.2
20240620172104 63 0 5.0 12.0 0.00 0.00 0.00 73 1018.4
20240620171605 63 0 5.0 12.0 0.00 0.00 0.00 73 1018.4
20240620171105 63 0 8.0 13.0 0.00 0.00 0.00 75 1018.4
20240620170605 63 0 5.0 8.0 0.00 0.00 0.00 75 1018.5
20240620170104 63 0 7.0 14.0 0.00 0.00 0.00 78 1018.4
20240620165604 63 0 9.0 13.0 0.00 0.00 0.00 79 1018.4
20240620165105 64 0 7.0 15.0 0.00 0.00 0.00 77 1018.4
20240620164104 64 0 7.0 15.0 0.00 0.00 0.00 71 1018.5
20240620163104 65 0 5.0 17.0 0.00 0.00 0.00 71 1018.6
20240620162604 66 0 6.0 18.0 0.00 0.00 0.00 69 1018.6
20240620162105 66 0 7.0 16.0 0.00 0.00 0.00 70 1018.5
20240620161605 66 0 6.0 17.0 0.00 0.00 0.00 70 1018.6
20240620161104 67 1 6.0 16.0 0.00 0.00 0.00 68 1018.7
20240620155104 67 0 6.0 15.0 0.00 0.00 0.00 67 1018.6
20240620154104 67 0 5.0 12.0 0.00 0.00 0.00 75 1018.6
20240620153105 66 0 4.0 9.0 0.00 0.00 0.00 75 1018.6
20240620152605 66 0 4.0 12.0 0.00 0.00 0.00 76 1018.6
20240620152105 65 0 3.0 12.0 0.00 0.00 0.00 79 1018.5
20240620151604 65 0 4.0 9.0 0.00 0.00 0.00 77 1018.5
20240620151106 65 0 6.0 10.0 0.00 0.00 0.00 82 1018.5
20240620150104 64 0 7.0 18.0 0.00 0.00 0.00 85 1018.5
20240620145605 64 0 8.0 16.0 0.00 0.00 0.00 83 1018.5
20240620145104 64 0 10.0 15.0 0.00 0.00 0.00 83 1018.5
20240620144605 65 0 5.0 10.0 0.00 0.00 0.00 84 1018.6
20240620143605 64 0 5.0 14.0 0.00 0.00 0.00 79 1018.7
20240620143104 64 0 5.0 12.0 0.00 0.00 0.00 83 1018.5
20240620142605 65 0 3.0 10.0 0.00 0.00 0.00 82 1018.7
20240620142104 65 0 7.0 12.0 0.00 0.00 0.00 78 1018.6
20240620141604 66 0 8.0 20.0 0.00 0.00 0.00 75 1018.6
20240620141104 66 0 3.0 10.0 0.00 0.00 0.00 72 1018.7
20240620140605 66 0 5.0 8.0 0.00 0.00 0.00 74 1018.9
20240620135605 65 0 3.0 7.0 0.00 0.00 0.00 73 1019.1
20240620135104 64 0 7.0 10.0 0.00 0.00 0.00 79 1019.3
20240620134605 65 0 8.0 12.0 0.00 0.00 0.00 75 1019.3
20240620134105 65 0 4.0 13.0 0.00 0.00 0.00 73 1019.5
20240620133604 65 0 10.0 17.0 0.00 0.00 0.00 75 1019.6
20240620133104 65 0 8.0 15.0 0.00 0.00 0.00 72 1019.7
20240620132604 66 0 5.0 8.0 0.00 0.00 0.00 75 1019.7
20240620132104 67 0 4.0 10.0 0.00 0.00 0.00 72 1019.8
20240620131604 67 1 6.0 14.0 0.00 0.00 0.00 62 1019.7
20240620131105 67 0 4.0 8.0 0.00 0.00 0.00 68 1019.7
20240620130105 68 0 5.0 12.0 0.00 0.00 0.00 61 1019.8
20240620125604 68 0 5.0 12.0 0.00 0.00 0.00 58 1019.6
20240620125105 68 0 6.0 12.0 0.00 0.00 0.00 57 1019.5
20240620124604 67 0 6.0 9.0 0.00 0.00 0.00 61 1019.4
20240620124104 67 0 5.0 13.0 0.00 0.00 0.00 61 1019.4
20240620123104 66 0 7.0 14.0 0.00 0.00 0.00 67 1019.3
20240620122604 66 0 6.0 12.0 0.00 0.00 0.00 69 1019.3
20240620122104 67 0 8.0 13.0 0.00 0.00 0.00 65 1019.4
20240620121604 67 0 7.0 13.0 0.00 0.00 0.00 65 1019.3
20240620121105 67 0 6.0 12.0 0.00 0.00 0.00 68 1019.3
20240620120604 68 0 5.0 12.0 0.00 0.00 0.00 64 1019.3
20240620120105 69 0 5.0 9.0 0.00 0.00 0.00 61 1019.3
20240620115605 70 0 5.0 12.0 0.00 0.00 0.00 59 1019.3
20240620115104 70 0 3.0 8.0 0.00 0.00 0.00 60 1019.3
20240620114104 70 0 6.0 9.0 0.00 0.00 0.00 60 1019.4
20240620113606 70 0 5.0 8.0 0.00 0.00 0.00 56 1019.3
20240620112606 70 0 6.0 12.0 0.00 0.00 0.00 58 1019.3
20240620111606 71 0 3.0 10.0 0.00 0.00 0.00 57 1019.2
20240620110607 72 0 5.0 9.0 0.00 0.00 0.00 62 1019.3
20240620110107 73 0 5.0 8.0 0.00 0.00 0.00 59 1019.3
20240620105607 74 0 4.0 8.0 0.00 0.00 0.00 54 1019.3
20240620105105 76 0 3.0 7.0 0.00 0.00 0.00 48 1019.3
20240620104606 76 0 2.0 6.0 0.00 0.00 0.00 51 1019.3
20240620103606 75 0 2.0 3.0 0.00 0.00 0.00 48 1019.2
20240620103106 73 1 2.0 5.0 0.00 0.00 0.00 54 1019.3
20240620102606 72 0 2.0 7.0 0.00 0.00 0.00 54 1019.5
20240620102106 71 0 1.0 9.0 0.00 0.00 0.00 57 1019.4
20240620101606 70 0 5.0 18.0 0.00 0.00 0.00 56 1019.4
20240620101105 71 0 5.0 8.0 0.00 0.00 0.00 58 1019.3
20240620100606 71 0 3.0 8.0 0.00 0.00 0.00 59 1019.3
20240620100107 71 0 4.0 12.0 0.00 0.00 0.00 56 1019.2
20240620095606 70 0 4.0 12.0 0.00 0.00 0.00 56 1019.2
20240620095105 70 0 4.0 9.0 0.00 0.00 0.00 56 1019.2
20240620094606 70 0 2.0 6.0 0.00 0.00 0.00 59 1019.2
20240620094106 70 0 2.0 9.0 0.00 0.00 0.00 58 1019.1
20240620093606 70 0 3.0 8.0 0.00 0.00 0.00 57 1019.0
20240620092606 70 0 3.0 8.0 0.00 0.00 0.00 58 1019.1
20240620092106 71 0 4.0 8.0 0.00 0.00 0.00 57 1018.9
20240620091606 70 0 2.0 8.0 0.00 0.00 0.00 55 1018.9
20240620091106 70 0 5.0 9.0 0.00 0.00 0.00 53 1018.8
20240620090605 70 0 2.0 10.0 0.00 0.00 0.00 57 1018.8
20240620090106 69 0 3.0 10.0 0.00 0.00 0.00 57 1018.8
20240620085606 69 0 3.0 7.0 0.00 0.00 0.00 58 1018.9
20240620085106 68 0 5.0 7.0 0.00 0.00 0.00 58 1018.8
20240620084606 68 0 4.0 12.0 0.00 0.00 0.00 61 1018.8
20240620084105 67 0 4.0 12.0 0.00 0.00 0.00 61 1018.8
20240620083606 67 0 7.0 13.0 0.00 0.00 0.00 60 1018.6
20240620083105 66 0 3.0 7.0 0.00 0.00 0.00 64 1018.7
20240620082606 65 0 6.0 12.0 0.00 0.00 0.00 61 1018.7
20240620081606 65 0 6.0 18.0 0.00 0.00 0.00 62 1018.5
20240620081106 65 0 7.0 13.0 0.00 0.00 0.00 64 1018.5
20240620080606 65 0 6.0 12.0 0.00 0.00 0.00 62 1018.6
20240620080106 66 0 3.0 14.0 0.00 0.00 0.00 62 1018.7
20240620075605 66 0 3.0 7.0 0.00 0.00 0.00 62 1018.7
20240620074606 66 0 5.0 7.0 0.00 0.00 0.00 61 1018.9
20240620074106 66 0 4.0 7.0 0.00 0.00 0.00 61 1018.7
20240620073606 66 0 2.0 8.0 0.00 0.00 0.00 62 1018.7
20240620072606 66 0 5.0 8.0 0.00 0.00 0.00 65 1018.8
20240620072106 65 0 4.0 7.0 0.00 0.00 0.00 65 1018.9
20240620071606 65 0 5.0 10.0 0.00 0.00 0.00 64 1018.9
20240620071105 65 0 8.0 18.0 0.00 0.00 0.00 63 1019.0
20240620070605 65 0 7.0 15.0 0.00 0.00 0.00 62 1019.0
20240620070106 65 1 3.0 9.0 0.00 0.00 0.00 62 1019.0
20240620065605 66 0 5.0 9.0 0.00 0.00 0.00 61 1019.0
20240620065106 66 0 5.0 7.0 0.00 0.00 0.00 62 1019.0
20240620064106 66 0 4.0 7.0 0.00 0.00 0.00 62 1019.0
20240620063606 66 0 4.0 12.0 0.00 0.00 0.00 64 1019.1
20240620063105 66 0 7.0 10.0 0.00 0.00 0.00 65 1019.2
20240620062605 65 0 7.0 15.0 0.00 0.00 0.00 62 1019.0
20240620062105 65 0 3.0 10.0 0.00 0.00 0.00 64 1018.9
20240620061606 64 0 3.0 10.0 0.00 0.00 0.00 65 1018.9
20240620061105 64 0 6.0 12.0 0.00 0.00 0.00 64 1018.9
20240620060605 64 0 5.0 14.0 0.00 0.00 0.00 61 1018.9
20240620055606 64 0 6.0 12.0 0.00 0.00 0.00 62 1018.9
20240620055106 64 0 4.0 9.0 0.00 0.00 0.00 61 1018.8
20240620054605 64 0 8.0 16.0 0.00 0.00 0.00 61 1018.9
20240620053605 64 0 4.0 23.0 0.00 0.00 0.00 62 1018.8
20240620053105 64 0 5.0 10.0 0.00 0.00 0.00 61 1018.9
20240620052605 64 0 5.0 9.0 0.00 0.00 0.00 60 1018.9
20240620052106 64 0 6.0 13.0 0.00 0.00 0.00 60 1018.9
20240620051605 64 0 5.0 12.0 0.00 0.00 0.00 60 1018.9
20240620050605 64 0 8.0 18.0 0.00 0.00 0.00 59 1018.5
20240620050105 64 0 6.0 12.0 0.00 0.00 0.00 59 1018.5
20240620045606 64 0 4.0 15.0 0.00 0.00 0.00 60 1018.7
20240620045105 64 0 6.0 12.0 0.00 0.00 0.00 59 1018.7
20240620044605 64 0 6.0 13.0 0.00 0.00 0.00 59 1018.5
20240620044106 64 0 6.0 12.0 0.00 0.00 0.00 59 1018.6
20240620043606 64 0 6.0 15.0 0.00 0.00 0.00 59 1018.6
20240620043105 64 0 6.0 16.0 0.00 0.00 0.00 59 1018.5
20240620042606 64 0 7.0 12.0 0.00 0.00 0.00 59 1018.6
20240620042105 64 0 4.0 9.0 0.00 0.00 0.00 58 1018.5
20240620041605 64 0 6.0 20.0 0.00 0.00 0.00 60 1018.5
20240620041106 64 0 8.0 18.0 0.00 0.00 0.00 58 1018.4
20240620040606 64 0 5.0 12.0 0.00 0.00 0.00 59 1018.6
20240620040106 64 0 5.0 9.0 0.00 0.00 0.00 59 1018.7
20240620035606 63 0 4.0 9.0 0.00 0.00 0.00 59 1018.7
20240620035106 63 0 4.0 8.0 0.00 0.00 0.00 59 1018.6
20240620034605 63 0 4.0 14.0 0.00 0.00 0.00 59 1018.5
20240620034105 63 0 5.0 12.0 0.00 0.00 0.00 60 1018.4
20240620033605 63 0 4.0 9.0 0.00 0.00 0.00 60 1018.6
20240620033106 62 0 4.0 9.0 0.00 0.00 0.00 60 1018.6
20240620032606 62 0 3.0 10.0 0.00 0.00 0.00 61 1018.7
20240620032105 62 0 5.0 10.0 0.00 0.00 0.00 61 1018.5
20240620031606 62 0 6.0 10.0 0.00 0.00 0.00 61 1018.5
20240620031105 62 0 6.0 13.0 0.00 0.00 0.00 61 1018.6
20240620030605 62 0 4.0 14.0 0.00 0.00 0.00 61 1018.4
20240620030105 62 0 2.0 7.0 0.00 0.00 0.00 61 1018.6
20240620025605 63 0 5.0 14.0 0.00 0.00 0.00 60 1018.7
20240620025106 63 0 6.0 14.0 0.00 0.00 0.00 60 1018.6
20240620024605 62 0 4.0 9.0 0.00 0.00 0.00 60 1018.5
20240620024105 63 0 5.0 10.0 0.00 0.00 0.00 60 1018.5
20240620023605 63 0 5.0 14.0 0.00 0.00 0.00 60 1018.4
20240620023105 63 0 5.0 7.0 0.00 0.00 0.00 59 1018.5
20240620022606 63 0 5.0 8.0 0.00 0.00 0.00 59 1018.7
20240620022105 63 0 4.0 10.0 0.00 0.00 0.00 59 1018.6
20240620021606 63 0 8.0 12.0 0.00 0.00 0.00 60 1018.6
20240620021105 63 0 7.0 10.0 0.00 0.00 0.00 60 1018.6
20240620020605 63 0 7.0 12.0 0.00 0.00 0.00 59 1018.7
20240620020105 63 0 9.0 13.0 0.00 0.00 0.00 59 1018.7
20240620015605 63 0 8.0 14.0 0.00 0.00 0.00 60 1018.7
20240620015106 63 0 8.0 13.0 0.00 0.00 0.00 59 1018.7
20240620014605 63 0 11.0 17.0 0.00 0.00 0.00 60 1018.7
20240620014105 63 0 5.0 13.0 0.00 0.00 0.00 59 1018.6
20240620012605 63 0 6.0 13.0 0.00 0.00 0.00 59 1018.9
20240620012106 63 0 5.0 15.0 0.00 0.00 0.00 60 1018.9
20240620011605 63 0 5.0 12.0 0.00 0.00 0.00 60 1018.8
20240620011105 62 0 5.0 10.0 0.00 0.00 0.00 61 1018.8
20240620010606 62 0 5.0 9.0 0.00 0.00 0.00 62 1018.8
20240620005605 62 0 5.0 10.0 0.00 0.00 0.00 63 1018.8
20240620005105 62 0 8.0 13.0 0.00 0.00 0.00 63 1018.9
20240620004606 62 0 7.0 13.0 0.00 0.00 0.00 63 1019.0
20240620004105 62 0 5.0 10.0 0.00 0.00 0.00 62 1019.1
20240620003605 63 0 7.0 18.0 0.00 0.00 0.00 61 1019.0
20240620003105 63 0 10.0 22.0 0.00 0.00 0.00 60 1018.8
20240620002605 63 0 5.0 15.0 0.00 0.00 0.00 60 1019.0
20240620002105 63 0 7.0 20.0 0.00 0.00 0.00 60 1018.9
20240620001605 63 0 9.0 16.0 0.00 0.00 0.00 60 1019.0
20240620000606 63 0 5.0 16.0 0.00 0.00 0.00 62 1019.3
20240620000106 63 0 12.0 18.0 0.00 0.00 0.00 62 1019.4
20240619235606 63 0 10.0 18.0 0.00 0.00 0.00 61 1019.5
20240619235105 63 0 10.0 18.0 0.00 0.00 0.00 61 1019.4
20240619234105 63 0 8.0 12.0 0.00 0.00 0.00 63 1019.4
20240619233105 63 0 10.0 17.0 0.00 0.00 0.00 62 1019.4
20240619232606 63 0 7.0 14.0 0.00 0.00 0.00 63 1019.6
20240619232105 63 0 12.0 20.0 0.00 0.00 0.00 63 1019.5
20240619231605 63 0 8.0 16.0 0.00 0.00 0.00 63 1019.4
20240619231105 62 0 7.0 15.0 0.00 0.00 0.00 64 1019.5
20240619230605 62 0 7.0 15.0 0.00 0.00 0.00 65 1019.5
20240619230105 62 0 7.0 16.0 0.00 0.00 0.00 65 1019.6